USTRANSCOM 7744


WSAP
Paya Lebar Airport
Singapore, SG
FJDG
Diego Garcia
Diego Garcia, GB

Activity Log

Date Flight Route Aircraft Duration
No Flights Yet

Route Details

Aircraft Information
Primary: Boeing 757-200SF
Backup: Not Available
Route Data
Distance: 1958nm
Sched. Duration: 5h 29m
Avg. Duration: 0h 00m (-530m)
Times Flown: 0
Recm'd Route: ASUNA R469 PKU N633 PIBED R212 GUDUG
Planned Altitude: 34,000ft
Origin Wx: WSAP 280000Z 04004KT 9999 FEW018 BKN160 27/24 Q1010
Dest. Wx: FJDG 272355Z 11004KT 9999 FEW017 SCT037 BKN120 28/25 A2973 RMK SLP064 8/830 T02770253 10280 20277 55010
Notes: USTRANSCOM CONTRACT FLIGHT

Financial History
Total Freight: 0lbs
Average Load: 0lbs/flt
Fuel Used: 0lbs
Avg. Fuel Used: 0lbs/flt
Fuel Expense: $0
Avg. Fuel Expense: $0
Avg. Fuel Cost: $0/lbs
Total Gross Income: $0
Pilot Pay: $0
Total Expenses: $0
Total Revenue: $0
Average Revenue: $0